createdAt,value
2023-04-27T00:04:26.382Z,3.30
2023-04-27T00:09:30.266Z,3.40
2023-04-27T00:14:33.526Z,3.30
2023-04-27T00:19:39.750Z,3.20
2023-04-27T00:24:43.397Z,3.20
2023-04-27T00:29:46.618Z,3.20
2023-04-27T00:34:51.581Z,3.20
2023-04-27T00:39:55.148Z,3.20
2023-04-27T00:44:59.243Z,3.20
2023-04-27T00:50:04.549Z,3.10
2023-04-27T00:55:09.889Z,3.20
2023-04-27T01:00:14.023Z,3.10
2023-04-27T01:05:18.612Z,3.00
2023-04-27T01:10:23.107Z,2.90
2023-04-27T01:15:27.145Z,2.90
2023-04-27T01:20:32.304Z,3.00
2023-04-27T01:25:37.246Z,2.90
2023-04-27T01:30:41.062Z,2.90
2023-04-27T01:35:45.096Z,2.90
2023-04-27T01:40:50.002Z,3.00
2023-04-27T01:45:53.572Z,3.00
2023-04-27T01:50:58.366Z,2.90
2023-04-27T01:56:04.034Z,2.70
2023-04-27T02:01:09.831Z,2.70
2023-04-27T02:06:13.446Z,2.60
2023-04-27T02:11:18.503Z,2.60
2023-04-27T02:16:22.205Z,2.50
2023-04-27T02:21:25.815Z,2.40
2023-04-27T02:26:30.956Z,2.40
2023-04-27T02:31:35.087Z,2.30
2023-04-27T02:36:38.694Z,2.30
2023-04-27T02:41:43.692Z,2.20
2023-04-27T02:46:47.277Z,2.20
2023-04-27T02:51:50.829Z,2.30
2023-04-27T02:56:55.890Z,2.20
2023-04-27T03:01:59.169Z,2.20
2023-04-27T03:07:02.890Z,2.10
2023-04-27T03:12:08.797Z,2.10
2023-04-27T03:17:12.054Z,2.10
2023-04-27T03:22:16.745Z,2.10
2023-04-27T03:27:21.734Z,2.10
2023-04-27T03:32:27.378Z,2.10
2023-04-27T03:37:31.047Z,2.20
2023-04-27T03:42:36.098Z,2.10
2023-04-27T03:47:40.341Z,2.10
2023-04-27T03:52:44.048Z,2.00
2023-04-27T03:57:49.189Z,2.00
2023-04-27T04:02:53.683Z,1.90
2023-04-27T04:07:57.428Z,2.20
2023-04-27T04:13:03.674Z,2.60
2023-04-27T04:18:07.380Z,2.80
2023-04-27T04:23:11.115Z,2.80
2023-04-27T04:28:16.002Z,3.00
2023-04-27T04:33:20.505Z,3.30
2023-04-27T04:38:24.897Z,3.70
2023-04-27T04:43:30.377Z,3.90
2023-04-27T04:48:34.084Z,4.10
2023-04-27T04:53:38.004Z,4.30
2023-04-27T04:58:42.608Z,4.60
2023-04-27T05:03:47.319Z,5.00
2023-04-27T05:08:50.744Z,5.50
2023-04-27T05:13:55.682Z,5.80
2023-04-27T05:18:59.387Z,5.90
2023-04-27T05:24:04.300Z,6.00
2023-04-27T05:29:09.382Z,6.00
2023-04-27T05:34:13.798Z,6.10
2023-04-27T05:39:17.561Z,6.20
2023-04-27T05:44:22.627Z,6.40
2023-04-27T05:49:25.991Z,6.50
2023-04-27T05:54:29.675Z,6.40
2023-04-27T05:59:34.679Z,6.50
2023-04-27T06:04:38.954Z,6.70
2023-04-27T06:09:43.149Z,7.00
2023-04-27T06:14:48.146Z,7.30
2023-04-27T06:19:52.052Z,7.50
2023-04-27T06:24:55.694Z,7.60
2023-04-27T06:30:00.840Z,7.50
2023-04-27T06:35:04.443Z,7.50
2023-04-27T06:40:10.035Z,7.40
2023-04-27T06:45:15.165Z,7.60
2023-04-27T06:50:19.269Z,8.10
2023-04-27T06:55:22.675Z,8.90
2023-04-27T07:00:28.529Z,9.60
2023-04-27T07:05:32.110Z,10.10
2023-04-27T07:10:36.057Z,10.70
2023-04-27T07:15:41.057Z,11.00
2023-04-27T07:20:44.669Z,11.30
2023-04-27T07:25:48.378Z,11.50
2023-04-27T07:30:53.580Z,11.50
2023-04-27T07:35:57.300Z,11.40
2023-04-27T07:41:04.834Z,11.20
2023-04-27T07:46:10.087Z,11.10
2023-04-27T07:51:16.366Z,11.10
2023-04-27T07:56:19.896Z,11.10
2023-04-27T08:01:25.050Z,11.20
2023-04-27T08:06:30.087Z,11.10
2023-04-27T08:11:34.078Z,11.10
2023-04-27T08:16:39.252Z,11.40
2023-04-27T08:21:42.947Z,11.50
2023-04-27T08:26:46.518Z,11.60
2023-04-27T08:31:51.904Z,11.80
2023-04-27T08:36:56.653Z,12.20
2023-04-27T08:42:00.262Z,12.10
2023-04-27T08:47:07.172Z,12.00
2023-04-27T08:52:15.059Z,12.10
2023-04-27T08:57:18.898Z,12.60
2023-04-27T09:02:23.515Z,12.80
2023-04-27T09:07:28.787Z,12.80
2023-04-27T09:12:32.152Z,12.40
2023-04-27T09:17:38.860Z,12.00
2023-04-27T09:22:45.715Z,12.20
2023-04-27T09:27:48.959Z,12.40
2023-04-27T09:32:56.114Z,13.50
2023-04-27T09:38:00.226Z,14.10
2023-04-27T09:43:03.930Z,13.70
2023-04-27T09:48:09.773Z,13.20
2023-04-27T09:53:15.747Z,13.20
2023-04-27T09:59:06.948Z,13.50
2023-04-27T10:04:50.946Z,13.80
2023-04-27T10:09:54.757Z,13.40
2023-04-27T10:15:00.110Z,12.80
2023-04-27T10:20:09.546Z,12.40
2023-04-27T10:25:19.182Z,12.50
2023-04-27T10:30:23.669Z,12.70
2023-04-27T10:35:37.128Z,13.10
2023-04-27T10:40:40.639Z,13.20
2023-04-27T10:45:44.749Z,12.90
2023-04-27T10:50:51.770Z,12.90
2023-04-27T10:55:57.093Z,13.20
2023-04-27T11:01:00.405Z,13.50
2023-04-27T11:06:06.932Z,13.50
2023-04-27T11:11:16.887Z,13.30
2023-04-27T11:16:20.515Z,13.20
2023-04-27T11:21:28.551Z,12.90
2023-04-27T11:26:32.139Z,12.60
2023-04-27T11:31:43.796Z,12.60
2023-04-27T11:37:07.229Z,12.80
2023-04-27T11:42:22.040Z,13.20
2023-04-27T11:47:27.807Z,13.60
2023-04-27T11:52:33.695Z,13.20
2023-04-27T11:57:37.983Z,12.80
2023-04-27T12:02:42.474Z,13.10
2023-04-27T12:07:47.384Z,13.70
2023-04-27T12:12:50.631Z,14.40
2023-04-27T12:17:53.824Z,13.90
2023-04-27T12:22:58.871Z,13.80
2023-04-27T12:28:02.609Z,14.20
2023-04-27T12:33:10.891Z,13.70
2023-04-27T12:38:15.944Z,13.90
2023-04-27T12:43:19.451Z,14.00
2023-04-27T12:48:23.582Z,13.80
2023-04-27T12:53:29.580Z,14.40
2023-04-27T12:58:32.925Z,14.30
2023-04-27T13:03:36.321Z,13.70
2023-04-27T13:08:42.168Z,13.50
2023-04-27T13:13:45.791Z,13.10
2023-04-27T13:18:50.580Z,12.90
2023-04-27T13:23:55.101Z,13.10
2023-04-27T13:28:59.029Z,13.30
2023-04-27T13:34:04.303Z,13.80
2023-04-27T13:39:08.905Z,14.40
2023-04-27T13:44:12.395Z,14.70
2023-04-27T13:49:16.041Z,14.50
2023-04-27T13:54:21.848Z,14.50
2023-04-27T13:59:26.643Z,14.20
2023-04-27T14:04:30.311Z,14.20
2023-04-27T14:09:35.402Z,14.20
2023-04-27T14:14:39.036Z,14.20
2023-04-27T14:19:43.371Z,13.70
2023-04-27T14:24:48.311Z,13.70
2023-04-27T14:29:51.897Z,13.70
2023-04-27T14:34:55.452Z,13.60
2023-04-27T14:40:00.577Z,13.20
2023-04-27T14:45:04.149Z,13.30
2023-04-27T14:50:08.600Z,13.30
2023-04-27T14:55:15.617Z,13.70
2023-04-27T15:00:19.708Z,13.80
2023-04-27T15:05:23.432Z,13.40
2023-04-27T15:10:28.506Z,13.40
2023-04-27T15:15:32.146Z,13.20
2023-04-27T15:20:35.833Z,13.10
2023-04-27T15:25:40.497Z,13.00
2023-04-27T15:30:44.787Z,12.90
2023-04-27T15:35:48.126Z,13.00
2023-04-27T15:40:53.052Z,12.90
2023-04-27T15:45:56.809Z,13.10
2023-04-27T15:51:00.431Z,13.00
2023-04-27T15:56:05.525Z,12.90
2023-04-27T16:01:09.175Z,12.90
2023-04-27T16:06:12.852Z,12.90
2023-04-27T16:11:17.802Z,12.90
2023-04-27T16:16:21.498Z,13.00
2023-04-27T16:21:25.376Z,13.10
2023-04-27T16:26:30.303Z,13.00
2023-04-27T16:31:34.087Z,13.10
2023-04-27T16:36:38.235Z,13.50
2023-04-27T16:41:42.893Z,13.70
2023-04-27T16:46:47.949Z,13.80
2023-04-27T16:51:53.023Z,14.20
2023-04-27T16:56:58.056Z,14.50
2023-04-27T17:02:16.398Z,14.60
2023-04-27T17:07:25.951Z,14.60
2023-04-27T17:12:30.903Z,14.50
2023-04-27T17:17:35.719Z,14.50
2023-04-27T17:22:39.643Z,14.60
2023-04-27T17:27:44.747Z,14.30
2023-04-27T17:32:48.379Z,13.70
2023-04-27T17:37:53.387Z,13.20
2023-04-27T17:42:58.332Z,12.60
2023-04-27T17:48:02.101Z,12.30
2023-04-27T17:53:06.467Z,12.20
2023-04-27T17:58:11.650Z,12.10
2023-04-27T18:03:15.594Z,12.00
2023-04-27T18:08:19.652Z,11.70
2023-04-27T18:13:24.775Z,11.40
2023-04-27T18:18:29.182Z,11.10
2023-04-27T18:23:35.087Z,10.80
2023-04-27T18:28:42.111Z,10.60
2023-04-27T18:33:46.250Z,10.40
2023-04-27T18:38:50.018Z,10.20
2023-04-27T18:43:55.266Z,10.10
2023-04-27T18:48:58.894Z,10.00
2023-04-27T18:54:02.539Z,9.80
2023-04-27T18:59:07.787Z,9.70
2023-04-27T19:04:11.965Z,9.70
2023-04-27T19:09:15.977Z,9.60
2023-04-27T19:14:21.283Z,9.50
2023-04-27T19:19:25.357Z,9.40
2023-04-27T19:24:29.029Z,9.30
2023-04-27T19:29:49.159Z,9.20
2023-04-27T19:34:52.720Z,9.10
2023-04-27T19:39:56.485Z,9.00
2023-04-27T19:45:01.502Z,9.00
2023-04-27T19:50:05.506Z,9.00
2023-04-27T19:55:09.829Z,8.90
2023-04-27T20:00:16.123Z,8.70
2023-04-27T20:05:20.075Z,8.70
2023-04-27T20:10:24.197Z,8.60
2023-04-27T20:15:29.296Z,8.50
2023-04-27T20:20:33.048Z,8.50
2023-04-27T20:25:36.705Z,8.50
2023-04-27T20:30:41.874Z,8.50
2023-04-27T20:35:47.061Z,8.50
2023-04-27T20:40:52.965Z,8.40
2023-04-27T20:45:58.372Z,8.30
2023-04-27T20:51:02.224Z,8.30
2023-04-27T20:56:06.180Z,8.20
2023-04-27T21:01:11.258Z,8.10
2023-04-27T21:06:16.913Z,8.10
2023-04-27T21:11:20.162Z,8.00
2023-04-27T21:16:25.068Z,7.90
2023-04-27T21:21:28.806Z,7.90
2023-04-27T21:26:32.647Z,8.00
2023-04-27T21:31:37.923Z,7.90
2023-04-27T21:36:41.638Z,7.90
2023-04-27T21:41:45.287Z,7.90
2023-04-27T21:46:50.484Z,7.80
2023-04-27T21:51:54.141Z,7.80
2023-04-27T21:56:57.765Z,7.80
2023-04-27T22:02:06.918Z,7.70
2023-04-27T22:07:10.867Z,7.70
2023-04-27T22:12:14.367Z,7.70
2023-04-27T22:17:19.352Z,7.60
2023-04-27T22:22:23.076Z,7.50
2023-04-27T22:27:35.286Z,7.50
2023-04-27T22:32:47.293Z,7.40
2023-04-27T22:37:50.960Z,7.40
2023-04-27T22:42:55.410Z,7.40
2023-04-27T22:48:00.427Z,7.40
2023-04-27T22:53:04.291Z,7.40
2023-04-27T22:58:07.871Z,7.30
2023-04-27T23:03:13.196Z,7.40
2023-04-27T23:08:18.986Z,7.40
2023-04-27T23:13:22.677Z,7.40
2023-04-27T23:18:27.825Z,7.50
2023-04-27T23:23:31.451Z,7.60
2023-04-27T23:28:35.053Z,7.70
2023-04-27T23:33:40.152Z,7.70
2023-04-27T23:38:43.632Z,7.70
2023-04-27T23:43:47.712Z,7.70
2023-04-27T23:48:52.696Z,7.70
2023-04-27T23:53:56.449Z,7.60
2023-04-27T23:58:59.958Z,7.50
